createdAt,value
2018-07-19T00:01:37.121Z,4.55
2018-07-19T00:04:05.618Z,6.67
2018-07-19T00:06:34.101Z,4.27
2018-07-19T00:09:02.498Z,4.30
2018-07-19T00:11:31.184Z,6.53
2018-07-19T00:13:59.822Z,4.40
2018-07-19T00:16:28.340Z,3.83
2018-07-19T00:18:56.987Z,5.85
2018-07-19T00:21:25.527Z,4.87
2018-07-19T00:23:54.414Z,9.07
2018-07-19T00:26:23.105Z,4.47
2018-07-19T00:28:52.040Z,3.53
2018-07-19T00:31:20.831Z,4.78
2018-07-19T00:33:49.519Z,3.47
2018-07-19T00:36:18.248Z,5.67
2018-07-19T00:38:46.825Z,3.53
2018-07-19T00:41:15.134Z,3.77
2018-07-19T00:43:43.447Z,5.10
2018-07-19T00:46:11.775Z,3.87
2018-07-19T00:48:40.107Z,5.87
2018-07-19T00:51:08.488Z,6.00
2018-07-19T00:53:36.799Z,6.70
2018-07-19T00:56:05.285Z,3.30
2018-07-19T00:58:33.621Z,3.97
2018-07-19T01:01:02.074Z,4.33
2018-07-19T01:03:30.402Z,4.90
2018-07-19T01:05:58.851Z,5.07
2018-07-19T01:08:27.283Z,5.80
2018-07-19T01:10:55.684Z,6.17
2018-07-19T01:13:24.033Z,4.30
2018-07-19T01:15:52.430Z,5.43
2018-07-19T01:18:20.752Z,5.87
2018-07-19T01:20:49.139Z,5.30
2018-07-19T01:23:17.467Z,7.20
2018-07-19T01:25:45.814Z,4.55
2018-07-19T01:28:14.199Z,4.30
2018-07-19T01:30:42.756Z,3.67
2018-07-19T01:33:11.103Z,5.40
2018-07-19T01:35:39.443Z,5.73
2018-07-19T01:38:07.729Z,4.83
2018-07-19T01:40:36.083Z,4.80
2018-07-19T01:43:04.387Z,6.10
2018-07-19T01:45:32.761Z,4.20
2018-07-19T01:48:01.284Z,4.17
2018-07-19T01:50:29.618Z,3.97
2018-07-19T01:52:57.936Z,5.17
2018-07-19T01:55:26.289Z,5.20
2018-07-19T01:57:54.627Z,4.67
2018-07-19T02:00:22.925Z,4.77
2018-07-19T02:02:51.334Z,10.53
2018-07-19T02:05:19.677Z,4.70
2018-07-19T02:07:47.978Z,5.70
2018-07-19T02:10:16.301Z,5.57
2018-07-19T02:12:44.614Z,3.50
2018-07-19T02:15:13.063Z,7.50
2018-07-19T02:17:41.367Z,3.87
2018-07-19T02:20:09.717Z,5.73
2018-07-19T02:22:38.106Z,4.43
2018-07-19T02:25:06.558Z,4.13
2018-07-19T02:27:34.882Z,6.17
2018-07-19T02:30:03.271Z,5.00
2018-07-19T02:32:31.596Z,4.63
2018-07-19T02:34:59.918Z,5.07
2018-07-19T02:37:28.239Z,4.27
2018-07-19T02:39:56.538Z,6.47
2018-07-19T02:42:24.875Z,5.73
2018-07-19T02:44:53.216Z,4.40
2018-07-19T02:47:21.585Z,5.93
2018-07-19T02:49:49.957Z,4.63
2018-07-19T02:52:18.294Z,4.33
2018-07-19T02:54:46.639Z,4.73
2018-07-19T02:57:14.985Z,4.70
2018-07-19T02:59:43.328Z,4.03
2018-07-19T03:02:11.990Z,5.40
2018-07-19T03:04:40.320Z,6.40
2018-07-19T03:07:08.666Z,4.30
2018-07-19T03:09:37.025Z,4.33
2018-07-19T03:12:05.408Z,4.50
2018-07-19T03:14:33.711Z,5.97
2018-07-19T03:17:02.153Z,6.77
2018-07-19T03:19:30.720Z,5.47
2018-07-19T03:21:59.481Z,4.97
2018-07-19T03:24:27.894Z,5.03
2018-07-19T03:26:56.262Z,4.47
2018-07-19T03:29:24.659Z,5.43
2018-07-19T03:31:53.170Z,4.27
2018-07-19T03:34:21.483Z,4.33
2018-07-19T03:36:49.816Z,4.30
2018-07-19T03:39:18.150Z,6.17
2018-07-19T03:41:46.510Z,4.47
2018-07-19T03:44:14.802Z,5.07
2018-07-19T03:46:43.184Z,4.83
2018-07-19T03:49:11.471Z,5.80
2018-07-19T03:51:39.893Z,4.83
2018-07-19T03:54:08.323Z,5.57
2018-07-19T03:56:36.741Z,6.50
2018-07-19T03:59:05.177Z,4.00
2018-07-19T04:01:33.550Z,5.43
2018-07-19T04:04:01.899Z,4.17
2018-07-19T04:06:30.231Z,5.33
2018-07-19T04:08:58.603Z,4.30
2018-07-19T04:11:26.978Z,5.60
2018-07-19T04:13:55.338Z,4.33
2018-07-19T04:16:23.752Z,4.13
2018-07-19T04:18:52.329Z,4.73
2018-07-19T04:21:20.689Z,5.20
2018-07-19T04:23:49.003Z,4.10
2018-07-19T04:26:17.435Z,3.93
2018-07-19T04:28:45.839Z,5.90
2018-07-19T04:31:14.158Z,4.13
2018-07-19T04:33:42.461Z,5.13
2018-07-19T04:36:10.814Z,3.67
2018-07-19T04:38:39.285Z,4.27
2018-07-19T04:41:07.588Z,4.10
2018-07-19T04:43:35.990Z,4.93
2018-07-19T04:46:04.296Z,6.83
2018-07-19T04:48:32.722Z,3.80
2018-07-19T04:51:01.308Z,5.27
2018-07-19T04:53:29.641Z,5.13
2018-07-19T04:55:57.953Z,4.97
2018-07-19T04:58:26.276Z,3.97
2018-07-19T05:00:54.591Z,4.57
2018-07-19T05:03:23.899Z,3.77
2018-07-19T05:05:52.211Z,3.77
2018-07-19T05:08:20.708Z,5.10
2018-07-19T05:10:49.198Z,3.73
2018-07-19T05:13:17.711Z,3.83
2018-07-19T05:15:46.117Z,5.20
2018-07-19T05:18:14.475Z,4.30
2018-07-19T05:20:42.927Z,4.60
2018-07-19T05:23:11.327Z,5.07
2018-07-19T05:25:39.658Z,4.10
2018-07-19T05:28:08.552Z,4.20
2018-07-19T05:30:37.259Z,5.53
2018-07-19T05:33:05.922Z,5.07
2018-07-19T05:35:34.536Z,5.90
2018-07-19T05:38:03.239Z,4.73
2018-07-19T05:40:31.953Z,4.50
2018-07-19T05:43:00.691Z,4.97
2018-07-19T05:45:29.274Z,3.20
2018-07-19T05:47:58.051Z,4.57
2018-07-19T05:50:26.749Z,4.37
2018-07-19T05:52:55.343Z,3.30
2018-07-19T05:55:23.953Z,3.80
2018-07-19T05:57:53.342Z,3.70
2018-07-19T06:00:22.009Z,4.43
2018-07-19T06:02:50.804Z,4.60
2018-07-19T06:05:19.250Z,4.60
2018-07-19T06:07:48.070Z,4.20
2018-07-19T06:10:17.447Z,3.33
2018-07-19T06:12:45.959Z,4.03
2018-07-19T06:15:14.337Z,3.62
2018-07-19T06:17:42.746Z,3.30
2018-07-19T06:20:11.069Z,2.73
2018-07-19T06:22:39.409Z,3.03
2018-07-19T06:25:08.667Z,3.40
2018-07-19T06:27:37.012Z,6.17
2018-07-19T06:30:06.573Z,3.83
2018-07-19T06:32:34.864Z,4.90
2018-07-19T06:35:03.313Z,3.72
2018-07-19T06:37:33.667Z,5.22
2018-07-19T06:40:02.027Z,3.75
2018-07-19T06:42:30.319Z,3.60
2018-07-19T06:44:58.667Z,3.47
2018-07-19T06:47:27.041Z,4.80
2018-07-19T06:49:55.493Z,3.42
2018-07-19T06:52:29.461Z,4.12
2018-07-19T06:54:58.551Z,3.35
2018-07-19T06:57:27.693Z,4.47
2018-07-19T06:59:56.606Z,3.45
2018-07-19T07:02:25.014Z,4.17
2018-07-19T07:04:57.489Z,4.37
2018-07-19T07:07:26.836Z,3.95
2018-07-19T07:09:57.756Z,3.62
2018-07-19T07:12:26.051Z,3.52
2018-07-19T07:14:54.680Z,5.05
2018-07-19T07:17:23.038Z,4.70
2018-07-19T07:19:52.487Z,5.33
2018-07-19T07:22:20.756Z,3.80
2018-07-19T07:24:49.069Z,2.70
2018-07-19T07:27:17.384Z,3.65
2018-07-19T07:29:45.815Z,2.35
2018-07-19T07:32:14.194Z,2.27
2018-07-19T07:34:42.638Z,2.90
2018-07-19T07:37:11.012Z,3.65
2018-07-19T07:39:39.539Z,4.47
2018-07-19T07:42:07.930Z,5.10
2018-07-19T07:44:36.354Z,3.75
2018-07-19T07:47:04.648Z,4.08
2018-07-19T07:49:33.006Z,3.47
2018-07-19T07:52:01.339Z,3.98
2018-07-19T07:54:29.680Z,2.90
2018-07-19T07:56:57.999Z,2.87
2018-07-19T07:59:27.099Z,4.58
2018-07-19T08:01:55.479Z,4.20
2018-07-19T08:04:23.889Z,3.77
2018-07-19T08:06:54.122Z,3.08
2018-07-19T08:09:22.580Z,4.12
2018-07-19T08:11:50.906Z,5.03
2018-07-19T08:14:19.287Z,3.95
2018-07-19T08:16:47.771Z,3.85
2018-07-19T08:19:16.178Z,3.17
2018-07-19T08:21:44.537Z,4.17
2018-07-19T08:24:12.987Z,3.05
2018-07-19T08:26:41.655Z,4.92
2018-07-19T08:29:10.082Z,3.80
2018-07-19T08:31:38.315Z,2.58
2018-07-19T08:34:07.046Z,3.65
2018-07-19T08:36:41.730Z,4.12
2018-07-19T08:39:13.804Z,3.35
2018-07-19T08:44:21.339Z,5.05
2018-07-19T08:46:49.671Z,3.52
2018-07-19T08:49:18.006Z,3.20
2018-07-19T08:51:46.408Z,3.20
2018-07-19T08:54:14.742Z,3.70
2018-07-19T08:56:43.100Z,5.10
2018-07-19T08:59:11.454Z,3.25
2018-07-19T09:01:40.149Z,3.67
2018-07-19T09:04:08.439Z,3.87
2018-07-19T09:06:36.779Z,3.62
2018-07-19T09:09:07.666Z,5.45
2018-07-19T09:11:36.050Z,4.00
2018-07-19T09:14:04.736Z,4.60
2018-07-19T09:16:33.407Z,4.10
2018-07-19T09:19:02.072Z,3.67
2018-07-19T09:21:30.513Z,3.67
2018-07-19T09:23:58.850Z,3.10
2018-07-19T09:26:27.254Z,4.10
2018-07-19T09:28:55.699Z,4.00
2018-07-19T09:31:24.914Z,3.45
2018-07-19T09:33:53.307Z,3.70
2018-07-19T09:36:21.842Z,3.83
2018-07-19T09:38:50.340Z,3.22
2018-07-19T09:41:18.910Z,3.60
2018-07-19T09:43:47.298Z,4.15
2018-07-19T09:46:15.783Z,5.30
2018-07-19T09:48:44.206Z,3.10
2018-07-19T09:51:12.586Z,8.75
2018-07-19T09:53:41.067Z,3.20
2018-07-19T09:56:09.383Z,3.22
2018-07-19T09:58:37.751Z,4.15
2018-07-19T10:01:11.424Z,5.30
2018-07-19T10:03:39.768Z,6.40
2018-07-19T10:06:08.129Z,5.67
2018-07-19T10:08:36.421Z,4.20
2018-07-19T10:11:04.946Z,3.47
2018-07-19T10:13:33.319Z,7.55
2018-07-19T10:16:01.812Z,5.15
2018-07-19T10:18:30.407Z,4.95
2018-07-19T10:20:59.013Z,4.53
2018-07-19T10:23:27.474Z,5.20
2018-07-19T10:25:56.268Z,4.58
2018-07-19T10:28:24.827Z,4.33
2018-07-19T10:30:53.174Z,3.55
2018-07-19T10:33:21.503Z,3.90
2018-07-19T10:35:49.841Z,4.67
2018-07-19T10:38:18.282Z,3.47
2018-07-19T10:40:46.644Z,4.58
2018-07-19T10:43:14.992Z,4.08
2018-07-19T10:45:43.347Z,5.28
2018-07-19T10:48:11.663Z,3.80
2018-07-19T10:50:39.977Z,3.35
2018-07-19T10:53:09.331Z,3.75
2018-07-19T10:55:37.655Z,4.65
2018-07-19T10:58:05.971Z,3.33
2018-07-19T11:00:34.309Z,6.10
2018-07-19T11:03:02.609Z,3.75
2018-07-19T11:05:30.960Z,6.58
2018-07-19T11:07:59.234Z,3.98
2018-07-19T11:10:27.540Z,6.05
2018-07-19T11:12:55.957Z,5.42
2018-07-19T11:15:24.323Z,6.35
2018-07-19T11:17:52.728Z,4.55
2018-07-19T11:20:21.043Z,4.08
2018-07-19T11:22:49.381Z,5.33
2018-07-19T11:25:17.739Z,4.08
2018-07-19T11:27:46.079Z,4.67
2018-07-19T11:30:14.451Z,3.55
2018-07-19T11:32:43.824Z,3.58
2018-07-19T11:35:12.168Z,4.65
2018-07-19T11:37:40.507Z,3.58
2018-07-19T11:40:08.950Z,5.12
2018-07-19T11:42:37.287Z,4.03
2018-07-19T11:45:06.198Z,5.20
2018-07-19T11:47:34.616Z,4.90
2018-07-19T11:50:02.953Z,3.75
2018-07-19T11:52:31.339Z,3.67
2018-07-19T11:54:59.778Z,4.05
2018-07-19T11:57:28.236Z,5.47
2018-07-19T11:59:56.754Z,5.72
2018-07-19T12:02:25.168Z,4.87
2018-07-19T12:04:53.427Z,3.52
2018-07-19T12:07:21.776Z,5.75
2018-07-19T12:09:50.045Z,4.62
2018-07-19T12:12:18.447Z,3.72
2018-07-19T12:14:46.776Z,4.53
2018-07-19T12:17:15.261Z,4.42
2018-07-19T12:19:43.538Z,4.83
2018-07-19T12:22:11.871Z,5.17
2018-07-19T12:24:40.238Z,4.60
2018-07-19T12:27:08.532Z,4.95
2018-07-19T12:29:36.992Z,3.80
2018-07-19T12:32:05.375Z,4.87
2018-07-19T12:34:33.813Z,3.90
2018-07-19T12:37:02.107Z,4.40
2018-07-19T12:39:30.517Z,3.90
2018-07-19T12:41:59.090Z,4.15
2018-07-19T12:44:27.503Z,3.80
2018-07-19T12:46:55.824Z,4.65
2018-07-19T12:49:24.252Z,4.42
2018-07-19T12:51:52.633Z,4.22
2018-07-19T12:54:21.072Z,5.42
2018-07-19T12:56:49.507Z,3.33
2018-07-19T12:59:17.949Z,5.40
2018-07-19T13:01:46.340Z,4.55
2018-07-19T13:04:14.686Z,4.10
2018-07-19T13:06:43.111Z,4.90
2018-07-19T13:09:11.455Z,4.25
2018-07-19T13:11:39.858Z,3.72
2018-07-19T13:14:08.211Z,6.85
2018-07-19T13:16:36.522Z,7.33
2018-07-19T13:19:04.908Z,6.33
2018-07-19T13:21:33.170Z,6.08
2018-07-19T13:24:02.419Z,5.30
2018-07-19T13:26:31.251Z,5.25
2018-07-19T13:28:59.749Z,5.03
2018-07-19T13:31:28.034Z,4.20
2018-07-19T13:33:56.477Z,5.37
2018-07-19T13:36:24.809Z,3.87
2018-07-19T13:38:53.289Z,4.10
2018-07-19T13:41:21.996Z,3.95
2018-07-19T13:43:50.401Z,4.40
2018-07-19T13:46:18.847Z,4.95
2018-07-19T13:48:47.212Z,5.00
2018-07-19T13:51:15.601Z,3.85
2018-07-19T13:54:16.116Z,3.92
2018-07-19T13:57:00.439Z,4.33
2018-07-19T13:59:28.742Z,3.62
2018-07-19T14:01:58.272Z,6.97
2018-07-19T14:04:26.763Z,4.05
2018-07-19T14:06:55.342Z,3.75
2018-07-19T14:09:23.766Z,3.98
2018-07-19T14:11:52.124Z,4.15
2018-07-19T14:14:20.486Z,3.62
2018-07-19T14:16:48.897Z,3.40
2018-07-19T14:19:17.343Z,4.53
2018-07-19T14:21:45.699Z,6.78
2018-07-19T14:24:14.126Z,5.28
2018-07-19T14:26:42.508Z,4.53
2018-07-19T14:29:10.877Z,4.05
2018-07-19T14:31:39.190Z,3.98
2018-07-19T14:34:07.518Z,7.42
2018-07-19T14:36:35.835Z,6.10
2018-07-19T14:39:06.638Z,4.83
2018-07-19T14:41:34.956Z,4.78
2018-07-19T14:44:03.391Z,4.42
2018-07-19T14:46:32.139Z,3.72
2018-07-19T14:49:00.483Z,8.25
2018-07-19T14:51:29.228Z,4.92
2018-07-19T14:53:57.756Z,4.17
2018-07-19T14:56:26.039Z,3.75
2018-07-19T14:58:54.709Z,5.20
2018-07-19T15:01:23.545Z,6.97
2018-07-19T15:03:52.305Z,4.03
2018-07-19T15:06:21.200Z,4.30
2018-07-19T15:08:49.618Z,4.75
2018-07-19T15:11:19.441Z,3.70
2018-07-19T15:13:48.067Z,4.87
2018-07-19T15:16:17.061Z,5.42
2018-07-19T15:18:45.474Z,4.30
2018-07-19T15:21:13.843Z,3.55
2018-07-19T15:23:42.450Z,3.67
2018-07-19T15:26:10.925Z,4.35
2018-07-19T15:28:39.263Z,3.85
2018-07-19T15:31:07.627Z,4.83
2018-07-19T15:33:36.007Z,5.67
2018-07-19T15:36:04.427Z,5.85
2018-07-19T15:38:32.839Z,4.25
2018-07-19T15:41:01.524Z,4.10
2018-07-19T15:43:29.864Z,5.20
2018-07-19T15:45:58.263Z,5.55
2018-07-19T15:48:26.530Z,5.78
2018-07-19T15:50:54.875Z,5.33
2018-07-19T15:53:23.221Z,4.35
2018-07-19T15:55:51.591Z,5.35
2018-07-19T15:58:19.986Z,4.75
2018-07-19T16:00:48.441Z,5.53
2018-07-19T16:03:16.876Z,10.05
2018-07-19T16:05:45.246Z,5.67
2018-07-19T16:08:13.517Z,5.78
2018-07-19T16:10:41.835Z,5.42
2018-07-19T16:13:10.279Z,5.62
2018-07-19T16:15:38.642Z,6.22
2018-07-19T16:18:07.529Z,4.62
2018-07-19T16:20:36.360Z,5.83
2018-07-19T16:23:06.270Z,6.17
2018-07-19T16:25:34.930Z,5.15
2018-07-19T16:28:03.621Z,4.47
2018-07-19T16:30:33.469Z,7.20
2018-07-19T16:33:02.140Z,4.75
2018-07-19T16:35:30.873Z,5.12
2018-07-19T16:37:59.685Z,4.15
2018-07-19T16:40:28.095Z,5.15
2018-07-19T16:42:58.010Z,4.45
2018-07-19T16:45:26.817Z,5.40
2018-07-19T16:47:55.626Z,6.62
2018-07-19T16:50:24.570Z,5.00
2018-07-19T16:52:53.187Z,6.45
2018-07-19T16:55:21.902Z,4.47
2018-07-19T16:57:50.467Z,7.50
2018-07-19T17:00:19.447Z,5.65
2018-07-19T17:02:48.113Z,4.12
2018-07-19T17:05:16.591Z,5.53
2018-07-19T17:07:44.900Z,6.72
2018-07-19T17:10:13.237Z,4.62
2018-07-19T17:12:41.775Z,5.58
2018-07-19T17:15:10.124Z,5.17
2018-07-19T17:17:38.445Z,7.55
2018-07-19T17:20:06.936Z,7.15
2018-07-19T17:22:35.487Z,8.45
2018-07-19T17:25:03.839Z,7.42
2018-07-19T17:27:32.353Z,6.55
2018-07-19T17:30:00.854Z,5.45
2018-07-19T17:32:29.239Z,7.30
2018-07-19T17:34:57.859Z,5.20
2018-07-19T17:37:26.176Z,4.33
2018-07-19T17:39:54.979Z,5.45
2018-07-19T17:42:23.549Z,6.62
2018-07-19T17:44:52.481Z,4.65
2018-07-19T17:47:20.840Z,6.53
2018-07-19T17:49:49.145Z,5.87
2018-07-19T17:52:17.494Z,5.45
2018-07-19T17:54:46.582Z,5.08
2018-07-19T17:57:15.023Z,6.10
2018-07-19T17:59:43.518Z,4.03
2018-07-19T18:02:12.246Z,4.00
2018-07-19T18:04:40.685Z,5.60
2018-07-19T18:07:09.274Z,4.42
2018-07-19T18:09:37.691Z,4.50
2018-07-19T18:12:06.209Z,4.92
2018-07-19T18:14:34.886Z,7.35
2018-07-19T18:17:03.296Z,5.08
2018-07-19T18:19:31.794Z,6.40
2018-07-19T18:22:00.185Z,6.03
2018-07-19T18:24:28.515Z,4.15
2018-07-19T18:26:57.000Z,5.35
2018-07-19T18:29:25.506Z,6.15
2018-07-19T18:31:54.888Z,4.50
2018-07-19T18:34:23.172Z,9.80
2018-07-19T18:36:51.539Z,6.35
2018-07-19T18:39:19.982Z,8.43
2018-07-19T18:41:48.427Z,35.88
2018-07-19T18:44:16.744Z,45.12
2018-07-19T18:46:45.103Z,34.67
2018-07-19T18:49:13.562Z,42.58
2018-07-19T18:51:42.021Z,54.23
2018-07-19T18:54:11.943Z,33.25
2018-07-19T18:56:41.144Z,17.02
2018-07-19T18:59:10.023Z,15.43
2018-07-19T19:01:38.416Z,11.22
2018-07-19T19:04:06.725Z,7.12
2018-07-19T19:06:36.216Z,8.40
2018-07-19T19:09:07.162Z,10.50
2018-07-19T19:11:36.026Z,11.08
2018-07-19T19:14:04.570Z,7.10
2018-07-19T19:16:32.891Z,7.05
2018-07-19T19:19:01.620Z,4.58
2018-07-19T19:21:30.021Z,6.97
2018-07-19T19:23:58.419Z,7.40
2018-07-19T19:26:27.205Z,5.22
2018-07-19T19:29:11.488Z,5.75
2018-07-19T19:31:47.818Z,6.83
2018-07-19T19:34:16.391Z,8.88
2018-07-19T19:36:47.405Z,8.78
2018-07-19T19:39:16.010Z,5.70
2018-07-19T19:41:44.531Z,6.95
2018-07-19T19:44:13.480Z,6.80
2018-07-19T19:46:42.337Z,8.10
2018-07-19T19:49:11.095Z,5.20
2018-07-19T19:51:39.656Z,4.75
2018-07-19T19:54:08.528Z,6.25
2018-07-19T19:56:37.438Z,9.25
2018-07-19T19:59:06.326Z,6.12
2018-07-19T20:01:35.851Z,4.87
2018-07-19T20:04:04.401Z,4.92
2018-07-19T20:06:32.942Z,8.00
2018-07-19T20:09:01.527Z,5.55
2018-07-19T20:11:30.036Z,6.45
2018-07-19T20:13:59.656Z,6.42
2018-07-19T20:16:28.024Z,8.13
2018-07-19T20:18:56.519Z,5.90
2018-07-19T20:21:25.187Z,4.83
2018-07-19T20:23:53.741Z,5.17
2018-07-19T20:26:22.222Z,4.87
2018-07-19T20:28:50.594Z,5.22
2018-07-19T20:31:18.899Z,6.35
2018-07-19T20:33:47.225Z,8.10
2018-07-19T20:36:15.576Z,17.25
2018-07-19T20:38:43.914Z,14.07
2018-07-19T20:41:12.255Z,17.05
2018-07-19T20:43:40.680Z,10.35
2018-07-19T20:46:09.142Z,8.55
2018-07-19T20:48:37.509Z,5.92
2018-07-19T20:51:06.031Z,5.53
2018-07-19T20:53:34.412Z,9.03
2018-07-19T20:56:02.722Z,6.05
2018-07-19T20:58:31.191Z,7.58
2018-07-19T21:00:59.492Z,6.15
2018-07-19T21:03:27.835Z,5.47
2018-07-19T21:05:56.139Z,5.53
2018-07-19T21:08:24.533Z,5.40
2018-07-19T21:10:52.826Z,5.20
2018-07-19T21:13:21.184Z,7.12
2018-07-19T21:15:49.459Z,7.87
2018-07-19T21:18:18.096Z,5.65
2018-07-19T21:20:46.411Z,5.55
2018-07-19T21:23:14.723Z,6.50
2018-07-19T21:25:43.171Z,7.22
2018-07-19T21:28:11.474Z,5.47
2018-07-19T21:30:39.816Z,5.65
2018-07-19T21:33:08.194Z,5.53
2018-07-19T21:35:36.516Z,6.33
2018-07-19T21:38:04.845Z,5.70
2018-07-19T21:40:33.146Z,7.78
2018-07-19T21:43:01.468Z,5.22
2018-07-19T21:45:29.765Z,5.80
2018-07-19T21:47:58.160Z,5.62
2018-07-19T21:50:27.190Z,6.08
2018-07-19T21:52:55.506Z,5.80
2018-07-19T21:55:23.818Z,6.23
2018-07-19T21:57:52.378Z,6.37
2018-07-19T22:00:20.693Z,6.62
2018-07-19T22:02:49.016Z,6.07
2018-07-19T22:05:17.359Z,5.90
2018-07-19T22:07:45.618Z,6.23
2018-07-19T22:10:15.790Z,7.23
2018-07-19T22:12:44.167Z,5.80
2018-07-19T22:15:12.532Z,6.30
2018-07-19T22:17:40.829Z,7.37
2018-07-19T22:20:09.201Z,6.53
2018-07-19T22:22:37.539Z,6.07
2018-07-19T22:25:05.905Z,7.07
2018-07-19T22:27:34.218Z,7.20
2018-07-19T22:30:02.536Z,9.33
2018-07-19T22:32:30.823Z,6.40
2018-07-19T22:34:59.139Z,6.03
2018-07-19T22:37:27.623Z,5.80
2018-07-19T22:39:55.962Z,6.00
2018-07-19T22:42:24.324Z,7.50
2018-07-19T22:44:52.638Z,5.93
2018-07-19T22:47:20.955Z,6.62
2018-07-19T22:49:49.417Z,6.27
2018-07-19T22:52:17.716Z,6.13
2018-07-19T22:54:46.047Z,6.30
2018-07-19T22:57:14.365Z,6.40
2018-07-19T22:59:42.677Z,6.57
2018-07-19T23:02:11.000Z,6.33
2018-07-19T23:04:39.300Z,6.50
2018-07-19T23:07:07.747Z,7.33
2018-07-19T23:09:36.062Z,6.63
2018-07-19T23:12:04.391Z,7.83
2018-07-19T23:14:32.700Z,7.13
2018-07-19T23:17:01.017Z,6.30
2018-07-19T23:19:29.494Z,8.00
2018-07-19T23:21:57.808Z,8.37
2018-07-19T23:24:26.173Z,8.73
2018-07-19T23:26:54.552Z,6.57
2018-07-19T23:29:22.919Z,7.73
2018-07-19T23:31:51.235Z,7.97
2018-07-19T23:34:19.571Z,7.00
2018-07-19T23:36:52.077Z,6.37
2018-07-19T23:39:24.472Z,6.60
2018-07-19T23:41:57.141Z,6.40
2018-07-19T23:44:30.616Z,10.10
2018-07-19T23:47:02.700Z,6.50
2018-07-19T23:49:31.070Z,6.27
2018-07-19T23:51:59.346Z,6.57
2018-07-19T23:54:27.755Z,8.13
2018-07-19T23:56:56.148Z,7.57
2018-07-19T23:59:24.560Z,7.20
